Airfield :
LOGIN :

Register | Disclaimer

   EN    FR    IT 

 










Legend :    VFR   Marginal VFR   IFR   Intensive IFR   Very Intensive IFR
Visi :
Ceiling :
>= 8 km
>= 3000ft
5 to 8 km
1000 to 3000 ft
1500m to 5 km
500 to 1000 ft
800 to 1500m
200 to 500 ft
< 800m
< 200 ft
Symbols :   Thunderstorms  Fog  Heavy snow  Heavy precipitations  Wind > 20 kt
SIGMETs :     Misc.  Thunderstorms  Icing  Turbulence  Mountain Waves  Volcanic Ashes






- Airport Elevation : 2265 ft
- IATA code : CZL


DABC - Mohamed Boudiaf Int. Constantine

CURRENT METAR :
  • 050100Z 20008KT 9999 FEW033 SCT200 10/03 Q1001

EXPIRED METARs :
  • 050000Z 21013KT 9999 FEW033 SCT200 09/03 Q1001
  • 042300Z 19006KT 9999 FEW033 SCT200 09/04 Q1002

TAF TAF DABC
Valid from the 05 at 00:00 until the 06 at 00:00 UTC


042300Z 0500/0524 20010KT 9999 FEW030 SCT200
TEMPO 0509/0518 FEW023TCU
PROB40
TEMPO 0515/0521 5000 -TSRA FEW020CB BKN030



MET'MAP, your aeronautical weather chart ! - Copyright ORBIFLY December 2007 - Disclaimer

ORBIFLY MET'MAP TEAM :

Programming & Development : Alexandra Zaïnal
Concept & original design : Baudouin d'Aumeries
Assistance for programming : Marc-Olivier Méhu
Technical & hardware support : Manuel Goepfert

Contact : metmap@orbifly.com




SOURCES & CREDITS :

   NOAA